sensor_id;sensor_type;location;lat;lon;timestamp;pressure;altitude;pressure_sealevel;temperature;humidity
22047;BME280;11187;49.412;20.956;2022-12-15T00:02:32;93556.94;;;-2.08;100.00
22047;BME280;11187;49.412;20.956;2022-12-15T00:05:23;93566.13;;;-2.07;100.00
22047;BME280;11187;49.412;20.956;2022-12-15T00:08:29;93571.97;;;-2.05;100.00
22047;BME280;11187;49.412;20.956;2022-12-15T00:11:21;93567.81;;;-2.05;100.00
22047;BME280;11187;49.412;20.956;2022-12-15T00:14:33;93577.00;;;-2.04;100.00
22047;BME280;11187;49.412;20.956;2022-12-15T00:17:45;93583.69;;;-2.03;100.00
22047;BME280;11187;49.412;20.956;2022-12-15T00:20:58;93587.91;;;-2.02;100.00
22047;BME280;11187;49.412;20.956;2022-12-15T00:24:09;93598.75;;;-2.01;100.00
22047;BME280;11187;49.412;20.956;2022-12-15T00:27:21;93608.81;;;-2.00;100.00
22047;BME280;11187;49.412;20.956;2022-12-15T00:30:13;93597.94;;;-1.99;100.00
22047;BME280;11187;49.412;20.956;2022-12-15T00:33:29;93612.97;;;-1.99;100.00
22047;BME280;11187;49.412;20.956;2022-12-15T00:36:41;93608.78;;;-1.98;100.00
22047;BME280;11187;49.412;20.956;2022-12-15T00:39:32;93613.81;;;-1.97;100.00
22047;BME280;11187;49.412;20.956;2022-12-15T00:42:26;93598.78;;;-1.97;100.00
22047;BME280;11187;49.412;20.956;2022-12-15T00:45:00;93602.13;;;-1.96;100.00
22047;BME280;11187;49.412;20.956;2022-12-15T00:47:47;93597.13;;;-1.95;100.00
22047;BME280;11187;49.412;20.956;2022-12-15T00:50:20;93604.63;;;-1.95;100.00
22047;BME280;11187;49.412;20.956;2022-12-15T00:53:32;93598.78;;;-1.94;100.00
22047;BME280;11187;49.412;20.956;2022-12-15T00:56:25;93600.47;;;-1.93;100.00
22047;BME280;11187;49.412;20.956;2022-12-15T00:59:31;93600.47;;;-1.93;100.00
22047;BME280;11187;49.412;20.956;2022-12-15T01:02:22;93597.94;;;-1.91;100.00
22047;BME280;11187;49.412;20.956;2022-12-15T01:05:28;93592.09;;;-1.92;100.00
22047;BME280;11187;49.412;20.956;2022-12-15T01:08:20;93597.13;;;-1.92;100.00
22047;BME280;11187;49.412;20.956;2022-12-15T01:11:32;93621.38;;;-1.89;100.00
22047;BME280;11187;49.412;20.956;2022-12-15T01:14:24;93654.00;;;-1.86;100.00
22047;BME280;11187;49.412;20.956;2022-12-15T01:17:37;93652.34;;;-1.84;100.00
22047;BME280;11187;49.412;20.956;2022-12-15T01:21:02;93665.72;;;-1.82;100.00
22047;BME280;11187;49.412;20.956;2022-12-15T01:23:37;93665.72;;;-1.83;100.00
22047;BME280;11187;49.412;20.956;2022-12-15T01:26:31;93667.41;;;-1.82;100.00
22047;BME280;11187;49.412;20.956;2022-12-15T01:29:04;93666.56;;;-1.83;100.00
22047;BME280;11187;49.412;20.956;2022-12-15T01:31:58;93674.09;;;-1.81;100.00
22047;BME280;11187;49.412;20.956;2022-12-15T01:34:52;93675.78;;;-1.80;100.00
22047;BME280;11187;49.412;20.956;2022-12-15T01:37:26;93678.28;;;-1.79;100.00
22047;BME280;11187;49.412;20.956;2022-12-15T01:40:20;93679.97;;;-1.78;100.00
22047;BME280;11187;49.412;20.956;2022-12-15T01:43:34;93680.81;;;-1.76;100.00
22047;BME280;11187;49.412;20.956;2022-12-15T01:46:28;93690.03;;;-1.75;100.00
22047;BME280;11187;49.412;20.956;2022-12-15T01:49:26;93683.34;;;-1.74;100.00
22047;BME280;11187;49.412;20.956;2022-12-15T01:52:04;93690.84;;;-1.73;100.00
22047;BME280;11187;49.412;20.956;2022-12-15T01:54:58;93688.34;;;-1.71;100.00
22047;BME280;11187;49.412;20.956;2022-12-15T01:57:33;93683.31;;;-1.73;100.00
22047;BME280;11187;49.412;20.956;2022-12-15T02:00:20;93682.50;;;-1.72;100.00
22047;BME280;11187;49.412;20.956;2022-12-15T02:02:55;93683.34;;;-1.70;100.00
22047;BME280;11187;49.412;20.956;2022-12-15T02:05:49;93683.34;;;-1.70;100.00
22047;BME280;11187;49.412;20.956;2022-12-15T02:08:45;93683.38;;;-1.68;100.00
22047;BME280;11187;49.412;20.956;2022-12-15T02:11:56;93677.53;;;-1.65;100.00
22047;BME280;11187;49.412;20.956;2022-12-15T02:15:26;93675.84;;;-1.65;100.00
22047;BME280;11187;49.412;20.956;2022-12-15T02:21:39;93687.56;;;-1.65;100.00
22047;BME280;11187;49.412;20.956;2022-12-15T02:27:57;93687.56;;;-1.64;100.00
22047;BME280;11187;49.412;20.956;2022-12-15T02:33:26;93684.22;;;-1.63;100.00
22047;BME280;11187;49.412;20.956;2022-12-15T02:38:53;93688.41;;;-1.62;100.00
22047;BME280;11187;49.412;20.956;2022-12-15T02:41:41;93690.91;;;-1.62;100.00
22047;BME280;11187;49.412;20.956;2022-12-15T02:44:42;93700.13;;;-1.61;100.00
22047;BME280;11187;49.412;20.956;2022-12-15T02:50:42;93699.28;;;-1.60;100.00
22047;BME280;11187;49.412;20.956;2022-12-15T02:56:25;93705.13;;;-1.59;100.00
22047;BME280;11187;49.412;20.956;2022-12-15T02:59:32;93693.44;;;-1.60;100.00
22047;BME280;11187;49.412;20.956;2022-12-15T03:02:32;93700.97;;;-1.60;100.00
22047;BME280;11187;49.412;20.956;2022-12-15T03:05:07;93701.81;;;-1.60;100.00
22047;BME280;11187;49.412;20.956;2022-12-15T03:07:54;93715.19;;;-1.58;100.00
22047;BME280;11187;49.412;20.956;2022-12-15T03:10:27;93717.72;;;-1.58;100.00
22047;BME280;11187;49.412;20.956;2022-12-15T03:13:14;93728.59;;;-1.56;100.00
22047;BME280;11187;49.412;20.956;2022-12-15T03:15:48;93726.09;;;-1.56;100.00
22047;BME280;11187;49.412;20.956;2022-12-15T03:18:43;93727.75;;;-1.55;100.00
22047;BME280;11187;49.412;20.956;2022-12-15T03:21:37;93726.94;;;-1.54;100.00
22047;BME280;11187;49.412;20.956;2022-12-15T03:24:31;93729.47;;;-1.52;100.00
22047;BME280;11187;49.412;20.956;2022-12-15T03:27:25;93731.97;;;-1.52;100.00
22047;BME280;11187;49.412;20.956;2022-12-15T03:29:58;93734.47;;;-1.52;100.00
22047;BME280;11187;49.412;20.956;2022-12-15T03:32:45;93742.00;;;-1.52;100.00
22047;BME280;11187;49.412;20.956;2022-12-15T03:35:39;93745.34;;;-1.50;100.00
22047;BME280;11187;49.412;20.956;2022-12-15T03:38:12;93747.88;;;-1.49;100.00
22047;BME280;11187;49.412;20.956;2022-12-15T03:41:06;93750.34;;;-1.50;100.00
22047;BME280;11187;49.412;20.956;2022-12-15T03:43:39;93752.88;;;-1.50;100.00
22047;BME280;11187;49.412;20.956;2022-12-15T03:46:33;93757.06;;;-1.51;100.00
22047;BME280;11187;49.412;20.956;2022-12-15T03:49:06;93757.06;;;-1.49;100.00
22047;BME280;11187;49.412;20.956;2022-12-15T03:51:53;93764.63;;;-1.48;100.00
22047;BME280;11187;49.412;20.956;2022-12-15T03:54:26;93759.59;;;-1.48;100.00
22047;BME280;11187;49.412;20.956;2022-12-15T03:57:20;93758.75;;;-1.48;100.00
22047;BME280;11187;49.412;20.956;2022-12-15T04:00:15;93765.47;;;-1.47;100.00
22047;BME280;11187;49.412;20.956;2022-12-15T04:02:51;93767.94;;;-1.49;100.00
22047;BME280;11187;49.412;20.956;2022-12-15T04:05:45;93764.63;;;-1.48;100.00
22047;BME280;11187;49.412;20.956;2022-12-15T04:08:18;93766.28;;;-1.48;100.00
22047;BME280;11187;49.412;20.956;2022-12-15T04:11:12;93770.47;;;-1.47;100.00
22047;BME280;11187;49.412;20.956;2022-12-15T04:14:08;93776.31;;;-1.48;100.00
22047;BME280;11187;49.412;20.956;2022-12-15T04:17:01;93768.78;;;-1.48;100.00
22047;BME280;11187;49.412;20.956;2022-12-15T04:19:35;93780.53;;;-1.47;100.00
22047;BME280;11187;49.412;20.956;2022-12-15T04:22:45;93784.69;;;-1.48;100.00
22047;BME280;11187;49.412;20.956;2022-12-15T04:25:23;93791.38;;;-1.48;100.00
22047;BME280;11187;49.412;20.956;2022-12-15T04:28:28;93793.03;;;-1.50;100.00
22047;BME280;11187;49.412;20.956;2022-12-15T04:31:24;93793.03;;;-1.49;100.00
22047;BME280;11187;49.412;20.956;2022-12-15T04:34:31;93801.38;;;-1.53;100.00
22047;BME280;11187;49.412;20.956;2022-12-15T04:37:26;93810.56;;;-1.55;100.00
22047;BME280;11187;49.412;20.956;2022-12-15T04:40:38;93804.75;;;-1.54;100.00
22047;BME280;11187;49.412;20.956;2022-12-15T04:43:50;93805.53;;;-1.55;100.00
22047;BME280;11187;49.412;20.956;2022-12-15T04:46:41;93808.91;;;-1.54;100.00
22047;BME280;11187;49.412;20.956;2022-12-15T04:49:47;93825.63;;;-1.55;100.00
22047;BME280;11187;49.412;20.956;2022-12-15T04:52:40;93818.06;;;-1.59;100.00
22047;BME280;11187;49.412;20.956;2022-12-15T04:55:52;93818.06;;;-1.62;100.00
22047;BME280;11187;49.412;20.956;2022-12-15T04:58:45;93829.78;;;-1.63;100.00
22047;BME280;11187;49.412;20.956;2022-12-15T05:01:50;93833.97;;;-1.60;100.00
22047;BME280;11187;49.412;20.956;2022-12-15T05:04:42;93833.13;;;-1.59;100.00
22047;BME280;11187;49.412;20.956;2022-12-15T05:07:47;93842.31;;;-1.63;100.00
22047;BME280;11187;49.412;20.956;2022-12-15T05:10:38;93857.34;;;-1.64;100.00
22047;BME280;11187;49.412;20.956;2022-12-15T05:13:43;93854.84;;;-1.64;100.00
22047;BME280;11187;49.412;20.956;2022-12-15T05:16:34;93854.00;;;-1.66;100.00
22047;BME280;11187;49.412;20.956;2022-12-15T05:19:40;93861.53;;;-1.68;100.00
22047;BME280;11187;49.412;20.956;2022-12-15T05:22:33;93869.88;;;-1.66;100.00
22047;BME280;11187;49.412;20.956;2022-12-15T05:25:38;93874.91;;;-1.64;100.00
22047;BME280;11187;49.412;20.956;2022-12-15T05:28:29;93873.25;;;-1.62;100.00
22047;BME280;11187;49.412;20.956;2022-12-15T05:31:41;93869.91;;;-1.61;100.00
22047;BME280;11187;49.412;20.956;2022-12-15T05:34:37;93878.31;;;-1.61;100.00
22047;BME280;11187;49.412;20.956;2022-12-15T05:37:10;93884.19;;;-1.59;100.00
22047;BME280;11187;49.412;20.956;2022-12-15T05:39:57;93877.47;;;-1.57;100.00
22047;BME280;11187;49.412;20.956;2022-12-15T05:42:30;93889.22;;;-1.56;100.00
22047;BME280;11187;49.412;20.956;2022-12-15T05:45:17;93888.38;;;-1.56;100.00
22047;BME280;11187;49.412;20.956;2022-12-15T05:47:51;93895.09;;;-1.54;100.00
22047;BME280;11187;49.412;20.956;2022-12-15T05:50:38;93900.13;;;-1.52;100.00
22047;BME280;11187;49.412;20.956;2022-12-15T05:53:11;93908.47;;;-1.50;100.00
22047;BME280;11187;49.412;20.956;2022-12-15T05:56:03;93920.22;;;-1.49;100.00
22047;BME280;11187;49.412;20.956;2022-12-15T05:58:37;93915.22;;;-1.48;100.00
22047;BME280;11187;49.412;20.956;2022-12-15T06:01:25;93922.72;;;-1.49;100.00
22047;BME280;11187;49.412;20.956;2022-12-15T06:03:58;93931.06;;;-1.50;100.00
22047;BME280;11187;49.412;20.956;2022-12-15T06:06:46;93933.59;;;-1.50;100.00
22047;BME280;11187;49.412;20.956;2022-12-15T06:09:19;93936.94;;;-1.51;100.00
22047;BME280;11187;49.412;20.956;2022-12-15T06:12:06;93940.28;;;-1.51;100.00
22047;BME280;11187;49.412;20.956;2022-12-15T06:14:39;93947.81;;;-1.51;100.00
22047;BME280;11187;49.412;20.956;2022-12-15T06:17:28;93951.16;;;-1.50;100.00
22047;BME280;11187;49.412;20.956;2022-12-15T06:20:01;93951.16;;;-1.50;100.00
22047;BME280;11187;49.412;20.956;2022-12-15T06:22:48;93957.84;;;-1.52;100.00
22047;BME280;11187;49.412;20.956;2022-12-15T06:25:22;93964.53;;;-1.51;100.00
22047;BME280;11187;49.412;20.956;2022-12-15T06:28:08;93957.00;;;-1.51;100.00
22047;BME280;11187;49.412;20.956;2022-12-15T06:30:41;93950.31;;;-1.52;100.00
22047;BME280;11187;49.412;20.956;2022-12-15T06:33:28;93960.38;;;-1.49;100.00
22047;BME280;11187;49.412;20.956;2022-12-15T06:36:04;93971.28;;;-1.47;100.00
22047;BME280;11187;49.412;20.956;2022-12-15T06:38:51;93979.66;;;-1.47;100.00
22047;BME280;11187;49.412;20.956;2022-12-15T06:41:25;93975.47;;;-1.46;100.00
22047;BME280;11187;49.412;20.956;2022-12-15T06:44:19;93998.88;;;-1.45;100.00
22047;BME280;11187;49.412;20.956;2022-12-15T06:47:13;93998.06;;;-1.44;100.00
22047;BME280;11187;49.412;20.956;2022-12-15T06:50:07;94005.63;;;-1.41;100.00
22047;BME280;11187;49.412;20.956;2022-12-15T06:53:01;94006.44;;;-1.44;100.00
22047;BME280;11187;49.412;20.956;2022-12-15T06:56:04;94005.63;;;-1.43;100.00
22047;BME280;11187;49.412;20.956;2022-12-15T06:58:38;94010.63;;;-1.44;100.00
22047;BME280;11187;49.412;20.956;2022-12-15T07:01:26;94018.19;;;-1.43;100.00
22047;BME280;11187;49.412;20.956;2022-12-15T07:03:59;94029.03;;;-1.41;100.00
22047;BME280;11187;49.412;20.956;2022-12-15T07:06:46;94033.28;;;-1.38;100.00
22047;BME280;11187;49.412;20.956;2022-12-15T07:09:19;94050.84;;;-1.38;100.00
22047;BME280;11187;49.412;20.956;2022-12-15T07:12:13;94054.22;;;-1.38;100.00
22047;BME280;11187;49.412;20.956;2022-12-15T07:15:07;94052.47;;;-1.42;100.00
22047;BME280;11187;49.412;20.956;2022-12-15T07:17:40;94053.31;;;-1.41;100.00
22047;BME280;11187;49.412;20.956;2022-12-15T07:20:27;94061.69;;;-1.41;100.00
22047;BME280;11187;49.412;20.956;2022-12-15T07:23:00;94065.06;;;-1.40;100.00
22047;BME280;11187;49.412;20.956;2022-12-15T07:25:55;94074.28;;;-1.36;100.00
22047;BME280;11187;49.412;20.956;2022-12-15T07:28:43;94074.34;;;-1.33;100.00
22047;BME280;11187;49.412;20.956;2022-12-15T07:31:23;94081.06;;;-1.31;100.00
22047;BME280;11187;49.412;20.956;2022-12-15T07:34:17;94084.44;;;-1.27;100.00
22047;BME280;11187;49.412;20.956;2022-12-15T07:37:11;94082.78;;;-1.23;100.00
22047;BME280;11187;49.412;20.956;2022-12-15T07:39:44;94100.41;;;-1.19;100.00
22047;BME280;11187;49.412;20.956;2022-12-15T07:42:34;94090.38;;;-1.19;100.00
22047;BME280;11187;49.412;20.956;2022-12-15T07:45:08;94098.75;;;-1.17;100.00
22047;BME280;11187;49.412;20.956;2022-12-15T07:47:55;94111.34;;;-1.15;100.00
22047;BME280;11187;49.412;20.956;2022-12-15T07:50:28;94117.19;;;-1.16;100.00
22047;BME280;11187;49.412;20.956;2022-12-15T07:53:15;94121.38;;;-1.17;100.00
22047;BME280;11187;49.412;20.956;2022-12-15T07:55:55;94119.69;;;-1.16;100.00
22047;BME280;11187;49.412;20.956;2022-12-15T07:58:42;94123.06;;;-1.14;100.00
22047;BME280;11187;49.412;20.956;2022-12-15T08:01:22;94121.44;;;-1.11;100.00
22047;BME280;11187;49.412;20.956;2022-12-15T08:03:57;94122.28;;;-1.09;100.00
22047;BME280;11187;49.412;20.956;2022-12-15T08:06:55;94118.97;;;-1.05;100.00
22047;BME280;11187;49.412;20.956;2022-12-15T08:09:28;94129.06;;;-1.01;100.00
22047;BME280;11187;49.412;20.956;2022-12-15T08:12:22;94130.72;;;-1.00;100.00
22047;BME280;11187;49.412;20.956;2022-12-15T08:15:16;94138.28;;;-1.02;100.00
22047;BME280;11187;49.412;20.956;2022-12-15T08:18:10;94147.47;;;-1.02;100.00
22047;BME280;11187;49.412;20.956;2022-12-15T08:20:43;94155.84;;;-1.00;100.00
22047;BME280;11187;49.412;20.956;2022-12-15T08:23:30;94168.47;;;-0.97;100.00
22047;BME280;11187;49.412;20.956;2022-12-15T08:26:11;94176.84;;;-0.94;100.00
22047;BME280;11187;49.412;20.956;2022-12-15T08:29:05;94171.84;;;-0.92;100.00
22047;BME280;11187;49.412;20.956;2022-12-15T08:31:59;94176.03;;;-0.91;100.00
22047;BME280;11187;49.412;20.956;2022-12-15T08:34:53;94182.75;;;-0.89;100.00
22047;BME280;11187;49.412;20.956;2022-12-15T08:37:26;94192.84;;;-0.87;100.00
22047;BME280;11187;49.412;20.956;2022-12-15T08:40:20;94187.00;;;-0.85;100.00
22047;BME280;11187;49.412;20.956;2022-12-15T08:43:14;94205.47;;;-0.84;100.00
22047;BME280;11187;49.412;20.956;2022-12-15T08:45:50;94207.16;;;-0.80;100.00
22047;BME280;11187;49.412;20.956;2022-12-15T08:48:37;94208.81;;;-0.80;100.00
22047;BME280;11187;49.412;20.956;2022-12-15T08:51:11;94213.81;;;-0.82;100.00
22047;BME280;11187;49.412;20.956;2022-12-15T08:53:58;94210.50;;;-0.81;100.00
22047;BME280;11187;49.412;20.956;2022-12-15T08:56:35;94208.84;;;-0.77;100.00
22047;BME280;11187;49.412;20.956;2022-12-15T08:59:21;94213.94;;;-0.71;100.00
22047;BME280;11187;49.412;20.956;2022-12-15T09:02:01;94209.78;;;-0.66;100.00
22047;BME280;11187;49.412;20.956;2022-12-15T09:04:35;94213.16;;;-0.64;100.00
22047;BME280;11187;49.412;20.956;2022-12-15T09:07:22;94222.41;;;-0.61;100.00
22047;BME280;11187;49.412;20.956;2022-12-15T09:09:55;94220.75;;;-0.63;100.00
22047;BME280;11187;49.412;20.956;2022-12-15T09:12:42;94223.28;;;-0.61;100.00
22047;BME280;11187;49.412;20.956;2022-12-15T09:15:16;94222.44;;;-0.57;100.00
22047;BME280;11187;49.412;20.956;2022-12-15T09:18:23;94215.78;;;-0.53;100.00
22047;BME280;11187;49.412;20.956;2022-12-15T09:21:01;94208.28;;;-0.50;100.00
22047;BME280;11187;49.412;20.956;2022-12-15T09:23:49;94215.03;;;-0.45;100.00
22047;BME280;11187;49.412;20.956;2022-12-15T09:26:28;94220.13;;;-0.38;100.00
22047;BME280;11187;49.412;20.956;2022-12-15T09:29:22;94220.22;;;-0.29;100.00
22047;BME280;11187;49.412;20.956;2022-12-15T09:32:16;94218.59;;;-0.23;100.00
22047;BME280;11187;49.412;20.956;2022-12-15T09:35:10;94219.41;;;-0.21;100.00
22047;BME280;11187;49.412;20.956;2022-12-15T09:37:43;94219.50;;;-0.16;100.00
22047;BME280;11187;49.412;20.956;2022-12-15T09:40:30;94230.41;;;-0.09;100.00
22047;BME280;11187;49.412;20.956;2022-12-15T09:43:05;94221.28;;;0.01;100.00
22047;BME280;11187;49.412;20.956;2022-12-15T09:48:54;94207.94;;;0.12;100.00
22047;BME280;11187;49.412;20.956;2022-12-15T09:51:47;94211.31;;;0.14;100.00
22047;BME280;11187;49.412;20.956;2022-12-15T09:54:26;94202.13;;;0.24;100.00
22047;BME280;11187;49.412;20.956;2022-12-15T10:03:09;94207.25;;;0.36;100.00
22047;BME280;11187;49.412;20.956;2022-12-15T10:06:01;94209.84;;;0.46;100.00
22047;BME280;11187;49.412;20.956;2022-12-15T10:09:08;94210.72;;;0.52;100.00
22047;BME280;11187;49.412;20.956;2022-12-15T10:12:31;94198.19;;;0.66;100.00
22047;BME280;11187;49.412;20.956;2022-12-15T10:15:46;94204.06;;;0.70;100.00
22047;BME280;11187;49.412;20.956;2022-12-15T10:21:40;94205.72;;;0.61;100.00
22047;BME280;11187;49.412;20.956;2022-12-15T10:24:35;94214.94;;;0.66;100.00
22047;BME280;11187;49.412;20.956;2022-12-15T10:30:31;94209.16;;;0.77;100.00
22047;BME280;11187;49.412;20.956;2022-12-15T10:33:22;94220.94;;;0.88;100.00
22047;BME280;11187;49.412;20.956;2022-12-15T10:35:56;94213.38;;;0.86;100.00
22047;BME280;11187;49.412;20.956;2022-12-15T10:38:44;94214.19;;;0.77;100.00
22047;BME280;11187;49.412;20.956;2022-12-15T10:41:21;94215.00;;;0.75;100.00
22047;BME280;11187;49.412;20.956;2022-12-15T10:44:23;94211.69;;;0.82;100.00
22047;BME280;11187;49.412;20.956;2022-12-15T10:47:08;94220.94;;;0.91;100.00
22047;BME280;11187;49.412;20.956;2022-12-15T10:53:45;94212.59;;;1.06;100.00
22047;BME280;11187;49.412;20.956;2022-12-15T10:56:59;94215.16;;;1.16;100.00
22047;BME280;11187;49.412;20.956;2022-12-15T10:59:36;94215.19;;;1.24;100.00
22047;BME280;11187;49.412;20.956;2022-12-15T11:02:33;94213.53;;;1.32;100.00
22047;BME280;11187;49.412;20.956;2022-12-15T11:08:16;94218.59;;;1.37;100.00
22047;BME280;11187;49.412;20.956;2022-12-15T11:10:55;94232.06;;;1.43;100.00
22047;BME280;11187;49.412;20.956;2022-12-15T11:14:16;94239.63;;;1.48;100.00
22047;BME280;11187;49.412;20.956;2022-12-15T11:16:55;94242.16;;;1.53;100.00
22047;BME280;11187;49.412;20.956;2022-12-15T11:22:39;94232.06;;;1.56;100.00
22047;BME280;11187;49.412;20.956;2022-12-15T11:25:42;94248.03;;;1.58;100.00
22047;BME280;11187;49.412;20.956;2022-12-15T11:28:24;94245.53;;;1.58;100.00
22047;BME280;11187;49.412;20.956;2022-12-15T11:31:18;94237.94;;;1.61;100.00
22047;BME280;11187;49.412;20.956;2022-12-15T11:34:15;94240.47;;;1.58;100.00
22047;BME280;11187;49.412;20.956;2022-12-15T11:40:37;94231.25;;;2.06;98.62
22047;BME280;11187;49.412;20.956;2022-12-15T11:47:17;94242.19;;;2.33;97.11
22047;BME280;11187;49.412;20.956;2022-12-15T11:50:18;94245.56;;;2.28;97.52
22047;BME280;11187;49.412;20.956;2022-12-15T11:53:24;94246.41;;;2.26;98.00
22047;BME280;11187;49.412;20.956;2022-12-15T12:02:28;94255.66;;;2.08;98.15
22047;BME280;11187;49.412;20.956;2022-12-15T12:11:54;94266.59;;;2.00;98.31
22047;BME280;11187;49.412;20.956;2022-12-15T12:17:53;94266.59;;;1.95;98.36
22047;BME280;11187;49.412;20.956;2022-12-15T12:20:55;94272.50;;;1.94;98.40
22047;BME280;11187;49.412;20.956;2022-12-15T12:23:44;94278.41;;;1.93;99.13
22047;BME280;11187;49.412;20.956;2022-12-15T12:29:48;94268.28;;;1.87;99.24
22047;BME280;11187;49.412;20.956;2022-12-15T12:35:36;94278.38;;;1.81;99.08
22047;BME280;11187;49.412;20.956;2022-12-15T12:38:36;94257.34;;;1.80;99.30
22047;BME280;11187;49.412;20.956;2022-12-15T12:44:34;94264.06;;;1.74;99.97
22047;BME280;11187;49.412;20.956;2022-12-15T12:47:18;94262.38;;;1.71;100.00
22047;BME280;11187;49.412;20.956;2022-12-15T12:50:14;94263.22;;;1.69;100.00
22047;BME280;11187;49.412;20.956;2022-12-15T12:52:52;94261.53;;;1.66;100.00
22047;BME280;11187;49.412;20.956;2022-12-15T12:55:41;94264.88;;;1.62;100.00
22047;BME280;11187;49.412;20.956;2022-12-15T12:58:37;94256.47;;;1.60;100.00
22047;BME280;11187;49.412;20.956;2022-12-15T13:01:31;94262.34;;;1.57;100.00
22047;BME280;11187;49.412;20.956;2022-12-15T13:04:12;94258.16;;;1.55;100.00
22047;BME280;11187;49.412;20.956;2022-12-15T13:07:33;94260.66;;;1.50;100.00
22047;BME280;11187;49.412;20.956;2022-12-15T13:10:27;94274.06;;;1.48;100.00
22047;BME280;11187;49.412;20.956;2022-12-15T13:16:10;94283.31;;;1.44;100.00
22047;BME280;11187;49.412;20.956;2022-12-15T13:19:03;94274.06;;;1.40;100.00
22047;BME280;11187;49.412;20.956;2022-12-15T13:21:58;94277.41;;;1.34;100.00
22047;BME280;11187;49.412;20.956;2022-12-15T13:24:51;94284.97;;;1.31;100.00
22047;BME280;11187;49.412;20.956;2022-12-15T13:27:50;94293.34;;;1.32;100.00
22047;BME280;11187;49.412;20.956;2022-12-15T13:45:14;94320.94;;;0.93;100.00
22047;BME280;11187;49.412;20.956;2022-12-15T13:48:15;94331.81;;;0.91;100.00
22047;BME280;11187;49.412;20.956;2022-12-15T13:54:03;94340.19;;;0.82;100.00
22047;BME280;11187;49.412;20.956;2022-12-15T14:02:30;94319.09;;;0.69;100.00
22047;BME280;11187;49.412;20.956;2022-12-15T14:05:05;94331.66;;;0.63;100.00
22047;BME280;11187;49.412;20.956;2022-12-15T14:10:52;94337.47;;;0.53;100.00
22047;BME280;11187;49.412;20.956;2022-12-15T14:14:01;94351.69;;;0.49;100.00
22047;BME280;11187;49.412;20.956;2022-12-15T14:16:35;94360.06;;;0.45;100.00
22047;BME280;11187;49.412;20.956;2022-12-15T14:19:21;94359.19;;;0.41;100.00
22047;BME280;11187;49.412;20.956;2022-12-15T14:22:02;94353.31;;;0.39;100.00
22047;BME280;11187;49.412;20.956;2022-12-15T14:25:12;94361.66;;;0.35;100.00
22047;BME280;11187;49.412;20.956;2022-12-15T14:27:46;94361.63;;;0.31;100.00
22047;BME280;11187;49.412;20.956;2022-12-15T14:30:33;94363.25;;;0.26;100.00
22047;BME280;11187;49.412;20.956;2022-12-15T14:33:12;94368.28;;;0.24;100.00
22047;BME280;11187;49.412;20.956;2022-12-15T14:36:08;94388.38;;;0.23;100.00
22047;BME280;11187;49.412;20.956;2022-12-15T14:38:56;94379.97;;;0.17;100.00
22047;BME280;11187;49.412;20.956;2022-12-15T14:41:46;94384.97;;;0.16;100.00
22047;BME280;11187;49.412;20.956;2022-12-15T14:44:28;94390.84;;;0.15;100.00
22047;BME280;11187;49.412;20.956;2022-12-15T14:47:36;94372.34;;;0.11;100.00
22047;BME280;11187;49.412;20.956;2022-12-15T14:50:09;94379.06;;;0.09;100.00
22047;BME280;11187;49.412;20.956;2022-12-15T14:53:13;94378.22;;;0.10;100.00
22047;BME280;11187;49.412;20.956;2022-12-15T14:55:48;94375.69;;;0.09;100.00
22047;BME280;11187;49.412;20.956;2022-12-15T14:58:38;94379.00;;;0.06;100.00
22047;BME280;11187;49.412;20.956;2022-12-15T15:01:23;94379.00;;;0.06;100.00
22047;BME280;11187;49.412;20.956;2022-12-15T15:04:25;94384.03;;;0.06;100.00
22047;BME280;11187;49.412;20.956;2022-12-15T15:07:03;94374.13;;;0.22;100.00
22047;BME280;11187;49.412;20.956;2022-12-15T15:09:51;94370.78;;;0.23;100.00
22047;BME280;11187;49.412;20.956;2022-12-15T15:12:42;94374.31;;;0.43;100.00
22047;BME280;11187;49.412;20.956;2022-12-15T15:15:36;94381.88;;;0.41;100.00
22047;BME280;11187;49.412;20.956;2022-12-15T15:18:30;94379.31;;;0.38;100.00
22047;BME280;11187;49.412;20.956;2022-12-15T15:21:05;94386.03;;;0.38;100.00
22047;BME280;11187;49.412;20.956;2022-12-15T15:24:00;94377.72;;;0.48;100.00
22047;BME280;11187;49.412;20.956;2022-12-15T15:26:34;94377.81;;;0.63;100.00
22047;BME280;11187;49.412;20.956;2022-12-15T15:29:39;94386.16;;;0.53;100.00
22047;BME280;11187;49.412;20.956;2022-12-15T15:32:20;94389.44;;;0.48;100.00
22047;BME280;11187;49.412;20.956;2022-12-15T15:35:14;94396.94;;;0.37;100.00
22047;BME280;11187;49.412;20.956;2022-12-15T15:43:52;94417.72;;;0.17;100.00
22047;BME280;11187;49.412;20.956;2022-12-15T15:46:34;94421.06;;;0.15;100.00
22047;BME280;11187;49.412;20.956;2022-12-15T15:49:31;94431.94;;;0.12;100.00
22047;BME280;11187;49.412;20.956;2022-12-15T15:52:27;94429.41;;;0.09;100.00
22047;BME280;11187;49.412;20.956;2022-12-15T15:55:01;94437.75;;;0.05;100.00
22047;BME280;11187;49.412;20.956;2022-12-15T15:57:54;94449.47;;;0.03;100.00
22047;BME280;11187;49.412;20.956;2022-12-15T16:00:48;94462.00;;;0.02;100.00
22047;BME280;11187;49.412;20.956;2022-12-15T16:03:22;94466.19;;;-0.02;100.00
22047;BME280;11187;49.412;20.956;2022-12-15T16:06:16;94467.84;;;-0.04;100.00
22047;BME280;11187;49.412;20.956;2022-12-15T16:08:51;94477.88;;;-0.06;100.00
22047;BME280;11187;49.412;20.956;2022-12-15T16:11:46;94482.00;;;-0.09;100.00
22047;BME280;11187;49.412;20.956;2022-12-15T16:14:39;94468.56;;;-0.13;100.00
22047;BME280;11187;49.412;20.956;2022-12-15T16:17:13;94466.03;;;-0.16;100.00
22047;BME280;11187;49.412;20.956;2022-12-15T16:20:02;94457.59;;;-0.18;100.00
22047;BME280;11187;49.412;20.956;2022-12-15T16:22:36;94460.13;;;-0.18;100.00
22047;BME280;11187;49.412;20.956;2022-12-15T16:25:32;94471.00;;;-0.19;100.00
22047;BME280;11187;49.412;20.956;2022-12-15T16:28:18;94455.06;;;-0.19;100.00
22047;BME280;11187;49.412;20.956;2022-12-15T16:31:10;94445.84;;;-0.19;100.00